Pacific Princess — ZCDS3 — position and weather

sailwx.info

Track history (hours):
 
Tides and Currents Weather Stations Pressure Air Temp Water Temp Dewpoint Dewpoint Depression Visibility Wind Speed Wind Dir Waves Ship Positions

Pacific Princess (Bermuda)

Last reported at 2015-Apr-15 23:33 UTC. Time now 2015-Apr-21 23:20 UTC.
Position N 36°02' W 005°19'.

Length 180.5 m; beam 25.6 m; draft 6 m.

Type: Passenger vessel. MMSI: 310504000.

Date/timePositionNaut miles runAvg speedWind from/ knotsBaromVisibWave heightAir tempDewpointWater temp
2015-Apr-15 23:33N 36°02' W 005°19'21717.5
2015-Apr-15 11:09N 37°13' W 001°03'1117.3
2015-Apr-15 10:31N 37°21' W 000°53'1616.8
2015-Apr-15 09:33N 37°31' W 000°38'1717.0
2015-Apr-15 08:34N 37°44' W 000°24'1717.0
2015-Apr-15 07:33N 37°59' W 000°13'12417.7
2015-Apr-15 00:33N 39°46' E 001°08'1818.0
2015-Apr-14 23:32N 40°02' E 001°19'1818.1
2015-Apr-14 22:33N 40°18' E 001°30'1818.1
2015-Apr-14 21:33N 40°33' E 001°42'1717.1
2015-Apr-14 20:33N 40°48' E 001°52'1717.2
2015-Apr-14 19:33N 41°03' E 002°04'1615.9
2015-Apr-14 18:31N 41°18' E 002°13'3 0.1
2015-Apr-13 09:11N 41°21' E 002°11'6 9.3
2015-Apr-13 08:30N 41°21' E 002°20'1212.2
2015-Apr-13 07:30N 41°26' E 002°35'1512.2
2015-Apr-13 06:14N 41°31' E 002°54'1012.9
2015-Apr-13 05:29N 41°35' E 003°06'3013.8
2015-Apr-13 03:21N 41°48' E 003°41'1315.0
2015-Apr-13 02:29N 41°54' E 003°56'1615.4
2015-Apr-13 01:25N 42°02' E 004°16'5914.9
2015-Apr-12 21:28N 42°29' E 005°26'4914.8
2015-Apr-12 18:10N 42°52' E 006°25'1014.7
2015-Apr-12 17:30N 42°58' E 006°35'1717.6
2015-Apr-12 16:33N 43°11' E 006°49'1817.5
2015-Apr-12 15:33N 43°25' E 007°04'1717.1
2015-Apr-12 14:33N 43°40' E 007°17'2 2.0
2015-Apr-12 13:33N 43°42' E 007°17'0 0.0
2015-Apr-12 12:33N 43°42' E 007°17'0 0.0
2015-Apr-12 11:33N 43°42' E 007°17'0 0.0
2015-Apr-12 10:33N 43°42' E 007°17'0 0.0
2015-Apr-12 09:33N 43°42' E 007°17'0 0.0
2015-Apr-12 08:33N 43°42' E 007°17'0 0.0
2015-Apr-12 07:33N 43°42' E 007°17'0 0.0
2015-Apr-12 06:33N 43°42' E 007°17'0 0.0
2015-Apr-12 05:33N 43°42' E 007°17'0 0.0
2015-Apr-12 04:33N 43°42' E 007°17'4 4.2
2015-Apr-12 03:33N 43°38' E 007°20'58 9.5
2015-Apr-11 21:27N 43°58' E 008°35'910.1
2015-Apr-11 20:33N 44°06' E 008°43'10 9.8
2015-Apr-11 19:33N 44°13' E 008°52'9 9.4
2015-Apr-11 18:33N 44°22' E 008°57'3 3.2
2015-Apr-11 17:30N 44°25' E 008°55'0 0.0
2015-Apr-11 15:30N 44°25' E 008°55'0 0.0
2015-Apr-11 14:18N 44°25' E 008°55'0 0.0
2015-Apr-11 13:30N 44°25' E 008°55'0 0.0
2015-Apr-11 11:24N 44°25' E 008°55'0 0.0
2015-Apr-11 10:12N 44°25' E 008°55'0 0.0
2015-Apr-11 08:30N 44°25' E 008°55'3 3.6
2015-Apr-11 07:33N 44°22' E 008°58'1414.0
2015-Apr-11 06:33N 44°16' E 009°16'3 2.6
2015-Apr-11 05:33N 44°18' E 009°13'4 2.8
2015-Apr-11 04:11N 44°16' E 009°18'712.1
2015-Apr-11 03:34N 44°09' E 009°20'1313.1
2015-Apr-11 02:33N 43°56' E 009°24'1514.7
2015-Apr-11 01:33N 43°42' E 009°28'1616.3
2015-Apr-11 00:33N 43°26' E 009°32'2418.2
2015-Apr-10 23:15N 43°02' E 009°38'1317.2
2015-Apr-10 22:31N 42°52' E 009°49'1817.7
2015-Apr-10 21:31N 42°41' E 010°07'2217.2
2015-Apr-10 20:13N 42°27' E 010°31'1317.6
2015-Apr-10 19:30N 42°19' E 010°44'155 6.2
2015-Apr-09 18:33N 40°50' E 013°34'1716.8
2015-Apr-09 17:33N 40°39' E 013°51'1616.4
2015-Apr-09 16:33N 40°39' E 014°13'8 7.7
2015-Apr-09 15:34N 40°38' E 014°23'0 0.1
2015-Apr-09 14:34N 40°38' E 014°23'0 0.0
2015-Apr-09 13:33N 40°38' E 014°23'0 0.0
2015-Apr-09 12:33N 40°38' E 014°23'0 0.0
2015-Apr-09 11:33N 40°38' E 014°23'0 0.1
2015-Apr-09 10:33N 40°38' E 014°23'0 0.1
2015-Apr-09 09:32N 40°38' E 014°23'0 0.0
2015-Apr-09 08:32N 40°38' E 014°23'0 0.0
2015-Apr-09 07:33N 40°38' E 014°23'0 0.1
2015-Apr-09 06:33N 40°38' E 014°23'0 0.0
2015-Apr-09 05:33N 40°38' E 014°23'0 0.1
2015-Apr-09 04:33N 40°38' E 014°23'6 5.3
2015-Apr-09 03:29N 40°34' E 014°17'1111.7
2015-Apr-09 02:32N 40°24' E 014°23'143 8.0
2015-Apr-08 08:33N 38°12' E 015°33'  
Track history (hours):
 
Tides and Currents Weather Stations Pressure Air Temp Water Temp Dewpoint Dewpoint Depression Visibility Wind Speed Wind Dir Waves Ship Positions

Pacific Princess (Bermuda)

Last reported at 2015-Apr-15 23:33 UTC. Time now 2015-Apr-21 23:20 UTC.
Position N 36°02' W 005°19'.

Length 180.5 m; beam 25.6 m; draft 6 m.

Type: Passenger vessel. MMSI: 310504000.

Date/timePositionNaut miles runAvg speedWind from/ knotsBaromVisibWave heightAir tempDewpointWater temp
2015-Apr-15 23:33N 36°02' W 005°19'21717.5
2015-Apr-15 11:09N 37°13' W 001°03'1117.3
2015-Apr-15 10:31N 37°21' W 000°53'1616.8
2015-Apr-15 09:33N 37°31' W 000°38'1717.0
2015-Apr-15 08:34N 37°44' W 000°24'1717.0
2015-Apr-15 07:33N 37°59' W 000°13'12417.7
2015-Apr-15 00:33N 39°46' E 001°08'1818.0
2015-Apr-14 23:32N 40°02' E 001°19'1818.1
2015-Apr-14 22:33N 40°18' E 001°30'1818.1
2015-Apr-14 21:33N 40°33' E 001°42'1717.1
2015-Apr-14 20:33N 40°48' E 001°52'1717.2
2015-Apr-14 19:33N 41°03' E 002°04'1615.9
2015-Apr-14 18:31N 41°18' E 002°13'3 0.1
2015-Apr-13 09:11N 41°21' E 002°11'6 9.3
2015-Apr-13 08:30N 41°21' E 002°20'1212.2
2015-Apr-13 07:30N 41°26' E 002°35'1512.2
2015-Apr-13 06:14N 41°31' E 002°54'1012.9
2015-Apr-13 05:29N 41°35' E 003°06'3013.8
2015-Apr-13 03:21N 41°48' E 003°41'1315.0
2015-Apr-13 02:29N 41°54' E 003°56'1615.4
2015-Apr-13 01:25N 42°02' E 004°16'5914.9
2015-Apr-12 21:28N 42°29' E 005°26'4914.8
2015-Apr-12 18:10N 42°52' E 006°25'1014.7
2015-Apr-12 17:30N 42°58' E 006°35'1717.6
2015-Apr-12 16:33N 43°11' E 006°49'1817.5
2015-Apr-12 15:33N 43°25' E 007°04'1717.1
2015-Apr-12 14:33N 43°40' E 007°17'2 2.0
2015-Apr-12 13:33N 43°42' E 007°17'0 0.0
2015-Apr-12 12:33N 43°42' E 007°17'0 0.0
2015-Apr-12 11:33N 43°42' E 007°17'0 0.0
2015-Apr-12 10:33N 43°42' E 007°17'0 0.0
2015-Apr-12 09:33N 43°42' E 007°17'0 0.0
2015-Apr-12 08:33N 43°42' E 007°17'0 0.0
2015-Apr-12 07:33N 43°42' E 007°17'0 0.0
2015-Apr-12 06:33N 43°42' E 007°17'0 0.0
2015-Apr-12 05:33N 43°42' E 007°17'0 0.0
2015-Apr-12 04:33N 43°42' E 007°17'4 4.2
2015-Apr-12 03:33N 43°38' E 007°20'58 9.5
2015-Apr-11 21:27N 43°58' E 008°35'910.1
2015-Apr-11 20:33N 44°06' E 008°43'10 9.8
2015-Apr-11 19:33N 44°13' E 008°52'9 9.4
2015-Apr-11 18:33N 44°22' E 008°57'3 3.2
2015-Apr-11 17:30N 44°25' E 008°55'0 0.0
2015-Apr-11 15:30N 44°25' E 008°55'0 0.0
2015-Apr-11 14:18N 44°25' E 008°55'0 0.0
2015-Apr-11 13:30N 44°25' E 008°55'0 0.0
2015-Apr-11 11:24N 44°25' E 008°55'0 0.0
2015-Apr-11 10:12N 44°25' E 008°55'0 0.0
2015-Apr-11 08:30N 44°25' E 008°55'3 3.6
2015-Apr-11 07:33N 44°22' E 008°58'1414.0
2015-Apr-11 06:33N 44°16' E 009°16'3 2.6
2015-Apr-11 05:33N 44°18' E 009°13'4 2.8
2015-Apr-11 04:11N 44°16' E 009°18'712.1
2015-Apr-11 03:34N 44°09' E 009°20'1313.1
2015-Apr-11 02:33N 43°56' E 009°24'1514.7
2015-Apr-11 01:33N 43°42' E 009°28'1616.3
2015-Apr-11 00:33N 43°26' E 009°32'2418.2
2015-Apr-10 23:15N 43°02' E 009°38'1317.2
2015-Apr-10 22:31N 42°52' E 009°49'1817.7
2015-Apr-10 21:31N 42°41' E 010°07'2217.2
2015-Apr-10 20:13N 42°27' E 010°31'1317.6
2015-Apr-10 19:30N 42°19' E 010°44'155 6.2
2015-Apr-09 18:33N 40°50' E 013°34'1716.8
2015-Apr-09 17:33N 40°39' E 013°51'1616.4
2015-Apr-09 16:33N 40°39' E 014°13'8 7.7
2015-Apr-09 15:34N 40°38' E 014°23'0 0.1
2015-Apr-09 14:34N 40°38' E 014°23'0 0.0
2015-Apr-09 13:33N 40°38' E 014°23'0 0.0
2015-Apr-09 12:33N 40°38' E 014°23'0 0.0
2015-Apr-09 11:33N 40°38' E 014°23'0 0.1
2015-Apr-09 10:33N 40°38' E 014°23'0 0.1
2015-Apr-09 09:32N 40°38' E 014°23'0 0.0
2015-Apr-09 08:32N 40°38' E 014°23'0 0.0
2015-Apr-09 07:33N 40°38' E 014°23'0 0.1
2015-Apr-09 06:33N 40°38' E 014°23'0 0.0
2015-Apr-09 05:33N 40°38' E 014°23'0 0.1
2015-Apr-09 04:33N 40°38' E 014°23'6 5.3
2015-Apr-09 03:29N 40°34' E 014°17'1111.7
2015-Apr-09 02:32N 40°24' E 014°23'143 8.0
2015-Apr-08 08:33N 38°12' E 015°33'  

Dump ship's entire track history